Matadepera, Spain
Current Conditions -  °F | °C
As of 3:30 PM on Thursday 29 Jan 2015 (Local Time) from LELL Reporting Station
Few Clouds Few Clouds  
Wind Chill: 59°   Ceiling: Unl
Heat Index: 59°   Visibility: 6mi
Dew Point: 36°   Wind: 15mph
Humidity: 42%   Direction: 250°WSW
Pressure: 29.59"   Gusts: 26mph
Location:  41.6°N, 2.03°E
Report Text: LELL 291430Z 25013G23KT 220V320 9999 FEW040 15/02 Q1002
Loading
Personal Weather Stations






























Interactive Weather Map New forecast layout! Learn more

10-Day Weather Forecast

Advertisements
Track Severe Weather on mobile